createdAt,value
2022-11-08T00:02:00.645Z,9.60
2022-11-08T00:04:32.598Z,9.60
2022-11-08T00:07:24.284Z,9.70
2022-11-08T00:10:15.453Z,9.60
2022-11-08T00:13:06.600Z,9.60
2022-11-08T00:15:39.181Z,9.60
2022-11-08T00:23:16.529Z,9.50
2022-11-08T00:25:55.688Z,9.60
2022-11-08T00:28:27.954Z,9.60
2022-11-08T00:31:05.227Z,9.70
2022-11-08T00:33:37.459Z,9.90
2022-11-08T00:36:10.472Z,9.70
2022-11-08T00:38:43.840Z,9.60
2022-11-08T00:41:16.547Z,9.70
2022-11-08T00:43:48.399Z,9.60
2022-11-08T00:48:53.878Z,9.80
2022-11-08T00:51:26.154Z,9.70
2022-11-08T00:53:58.628Z,9.80
2022-11-08T00:56:30.548Z,9.80
2022-11-08T00:59:03.257Z,9.70
2022-11-08T01:01:35.313Z,9.80
2022-11-08T01:04:10.767Z,9.80
2022-11-08T01:06:42.954Z,9.70
2022-11-08T01:11:48.071Z,9.70
2022-11-08T01:14:20.899Z,9.80
2022-11-08T01:16:53.179Z,9.70
2022-11-08T01:19:25.436Z,9.70
2022-11-08T01:24:30.735Z,9.80
2022-11-08T01:27:03.074Z,9.80
2022-11-08T01:29:35.446Z,9.70
2022-11-08T01:32:07.784Z,9.80
2022-11-08T01:34:40.464Z,9.80
2022-11-08T01:37:12.786Z,9.90
2022-11-08T01:39:44.648Z,9.80
2022-11-08T01:42:17.323Z,9.80
2022-11-08T01:45:11.774Z,9.90
2022-11-08T01:47:44.463Z,9.90
2022-11-08T01:50:18.985Z,9.80
2022-11-08T01:52:56.092Z,10.00
2022-11-08T01:55:36.201Z,9.90
2022-11-08T01:58:16.151Z,9.90
2022-11-08T02:03:22.944Z,10.10
2022-11-08T02:05:56.454Z,10.10
2022-11-08T02:08:42.731Z,10.00
2022-11-08T02:11:17.678Z,10.00
2022-11-08T02:13:50.353Z,10.00
2022-11-08T02:16:22.178Z,10.10
2022-11-08T02:18:54.902Z,10.00
2022-11-08T02:21:39.880Z,10.10
2022-11-08T02:24:14.631Z,10.10
2022-11-08T02:26:47.348Z,10.00
2022-11-08T02:29:33.217Z,10.10
2022-11-08T02:32:06.653Z,9.90
2022-11-08T02:34:53.010Z,9.90
2022-11-08T02:37:27.237Z,9.90
2022-11-08T02:40:01.025Z,9.80
2022-11-08T02:42:32.887Z,9.70
2022-11-08T02:45:07.915Z,9.60
2022-11-08T02:47:40.182Z,9.40
2022-11-08T02:50:12.446Z,9.30
2022-11-08T02:52:44.709Z,9.30
2022-11-08T02:55:16.683Z,9.20
2022-11-08T02:57:49.357Z,9.30
2022-11-08T03:00:21.204Z,9.30
2022-11-08T03:02:58.833Z,9.30
2022-11-08T03:05:31.415Z,9.30
2022-11-08T03:08:04.705Z,9.30
2022-11-08T03:10:36.605Z,9.30
2022-11-08T03:13:08.967Z,9.30
2022-11-08T03:18:14.597Z,9.30
2022-11-08T03:20:46.564Z,9.30
2022-11-08T03:25:52.897Z,9.30
2022-11-08T03:28:25.940Z,9.20
2022-11-08T03:30:58.338Z,9.20
2022-11-08T03:33:31.047Z,9.20
2022-11-08T03:36:04.710Z,9.20
2022-11-08T03:38:36.576Z,9.10
2022-11-08T03:41:09.270Z,9.10
2022-11-08T03:43:41.682Z,9.10
2022-11-08T03:46:14.440Z,9.00
2022-11-08T03:48:46.279Z,8.90
2022-11-08T03:51:18.809Z,8.90
2022-11-08T03:53:50.650Z,8.80
2022-11-08T03:56:23.344Z,8.80
2022-11-08T03:58:55.185Z,8.80
2022-11-08T04:01:27.978Z,8.80
2022-11-08T04:03:59.951Z,8.60
2022-11-08T04:09:06.118Z,8.50
2022-11-08T04:14:48.206Z,8.50
2022-11-08T04:17:40.421Z,8.50
2022-11-08T04:20:31.555Z,8.50
2022-11-08T04:23:03.394Z,8.40
2022-11-08T04:25:36.143Z,8.50
2022-11-08T04:28:08.231Z,8.50
2022-11-08T04:30:40.906Z,8.40
2022-11-08T04:33:12.776Z,8.40
2022-11-08T04:35:45.595Z,8.40
2022-11-08T04:38:18.058Z,8.30
2022-11-08T04:40:51.011Z,8.20
2022-11-08T04:43:22.850Z,8.30
2022-11-08T04:46:20.699Z,8.40
2022-11-08T04:48:58.874Z,8.60
2022-11-08T04:51:34.094Z,9.10
2022-11-08T04:54:07.675Z,9.40
2022-11-08T04:56:42.035Z,9.40
2022-11-08T04:59:14.110Z,9.40
2022-11-08T05:01:46.798Z,9.40
2022-11-08T05:04:18.812Z,9.50
2022-11-08T05:09:23.815Z,9.30
2022-11-08T05:11:56.390Z,9.40
2022-11-08T05:17:01.043Z,9.40
2022-11-08T05:19:52.186Z,9.40
2022-11-08T05:22:43.972Z,9.40
2022-11-08T05:25:16.794Z,9.40
2022-11-08T05:30:21.337Z,9.40
2022-11-08T05:32:54.103Z,9.30
2022-11-08T05:35:27.288Z,9.20
2022-11-08T05:37:59.146Z,9.10
2022-11-08T05:40:33.624Z,9.00
2022-11-08T05:43:06.018Z,9.10
2022-11-08T05:45:38.792Z,9.00
2022-11-08T05:48:10.659Z,8.90
2022-11-08T05:50:43.926Z,8.90
2022-11-08T05:55:49.818Z,9.00
2022-11-08T05:58:22.496Z,9.00
2022-11-08T06:01:11.131Z,9.10
2022-11-08T06:03:44.341Z,9.10
2022-11-08T06:06:22.094Z,8.90
2022-11-08T06:08:54.845Z,9.10
2022-11-08T06:11:28.277Z,9.00
2022-11-08T06:16:34.030Z,9.00
2022-11-08T06:19:06.299Z,9.00
2022-11-08T06:21:38.880Z,9.00
2022-11-08T06:24:11.893Z,8.80
2022-11-08T06:26:45.148Z,8.70
2022-11-08T06:34:23.303Z,8.30
2022-11-08T06:36:59.025Z,8.40
2022-11-08T06:39:31.050Z,8.40
2022-11-08T06:42:03.889Z,9.00
2022-11-08T06:47:09.011Z,8.70
2022-11-08T06:52:15.032Z,8.80
2022-11-08T06:57:21.272Z,8.80
2022-11-08T07:02:27.214Z,8.90
2022-11-08T07:04:59.584Z,8.90
2022-11-08T07:10:05.902Z,9.00
2022-11-08T07:12:39.555Z,9.10
2022-11-08T07:15:11.544Z,9.20
2022-11-08T07:17:43.830Z,9.30
2022-11-08T07:20:15.859Z,9.50
2022-11-08T07:22:48.787Z,9.60
2022-11-08T07:28:03.425Z,10.00
2022-11-08T07:30:36.001Z,10.10
2022-11-08T07:33:29.822Z,10.30
2022-11-08T07:36:03.169Z,10.40
2022-11-08T07:38:35.102Z,10.40
2022-11-08T07:41:10.027Z,10.40
2022-11-08T07:43:42.461Z,10.60
2022-11-08T07:46:21.029Z,10.70
2022-11-08T07:48:52.877Z,10.90
2022-11-08T07:51:25.550Z,11.00
2022-11-08T08:01:40.164Z,11.50
2022-11-08T08:04:12.886Z,11.60
2022-11-08T08:06:44.722Z,11.70
2022-11-08T08:16:55.263Z,12.10
2022-11-08T08:19:27.824Z,12.10
2022-11-08T08:21:59.695Z,12.30
2022-11-08T08:24:32.370Z,12.30
2022-11-08T08:27:04.313Z,12.30
2022-11-08T08:32:09.371Z,11.90
2022-11-08T08:34:41.266Z,12.10
2022-11-08T08:37:15.378Z,12.90
2022-11-08T08:39:47.770Z,13.60
2022-11-08T08:44:52.491Z,15.20
2022-11-08T08:47:24.454Z,15.30
2022-11-08T08:52:28.908Z,11.90
2022-11-08T08:55:00.797Z,13.60
2022-11-08T08:57:34.021Z,13.30
2022-11-08T09:03:09.497Z,14.10
2022-11-08T09:10:57.979Z,15.40
2022-11-08T09:13:31.165Z,16.30
2022-11-08T09:16:03.999Z,16.40
2022-11-08T09:18:36.564Z,15.80
2022-11-08T09:21:09.160Z,16.10
2022-11-08T09:23:42.237Z,16.50
2022-11-08T09:26:14.752Z,16.50
2022-11-08T09:28:47.036Z,17.00
2022-11-08T09:31:19.656Z,17.40
2022-11-08T09:33:51.573Z,17.70
2022-11-08T09:36:24.084Z,17.40
2022-11-08T09:38:55.935Z,18.10
2022-11-08T09:42:02.567Z,18.50
2022-11-08T09:44:58.427Z,19.10
2022-11-08T09:47:44.317Z,18.70
2022-11-08T09:50:42.363Z,18.00
2022-11-08T09:53:40.912Z,17.80
2022-11-08T09:56:26.803Z,18.10
2022-11-08T10:01:37.560Z,17.60
2022-11-08T10:04:15.791Z,17.40
2022-11-08T10:07:15.949Z,17.60
2022-11-08T10:10:17.988Z,18.50
2022-11-08T10:13:30.215Z,19.20
2022-11-08T10:16:54.464Z,19.90
2022-11-08T10:19:50.803Z,20.10
2022-11-08T10:22:52.861Z,20.40
2022-11-08T10:25:31.264Z,20.20
2022-11-08T10:28:06.694Z,20.40
2022-11-08T10:30:43.544Z,20.50
2022-11-08T10:33:29.161Z,21.10
2022-11-08T10:36:10.852Z,21.60
2022-11-08T10:38:57.707Z,22.00
2022-11-08T10:41:42.032Z,22.00
2022-11-08T10:44:21.085Z,22.20
2022-11-08T10:46:56.657Z,22.60
2022-11-08T10:49:42.549Z,22.60
2022-11-08T10:52:43.046Z,22.60
2022-11-08T10:55:38.445Z,22.90
2022-11-08T10:58:40.175Z,22.50
2022-11-08T11:01:25.831Z,21.70
2022-11-08T11:03:57.738Z,21.80
2022-11-08T11:06:32.929Z,21.60
2022-11-08T11:09:20.293Z,21.30
2022-11-08T11:12:08.953Z,21.10
2022-11-08T11:17:27.034Z,20.60
2022-11-08T11:19:59.119Z,20.40
2022-11-08T11:22:34.149Z,20.40
2022-11-08T11:25:18.550Z,20.40
2022-11-08T11:28:01.225Z,20.50
2022-11-08T11:30:35.489Z,20.40
2022-11-08T11:33:14.061Z,20.20
2022-11-08T11:35:58.576Z,20.20
2022-11-08T11:38:58.339Z,20.10
2022-11-08T11:41:37.881Z,20.20
2022-11-08T11:44:21.104Z,20.60
2022-11-08T11:47:03.219Z,21.00
2022-11-08T11:49:36.136Z,21.40
2022-11-08T11:52:18.118Z,21.50
2022-11-08T11:54:50.570Z,21.40
2022-11-08T11:57:46.386Z,21.30
2022-11-08T12:00:19.022Z,21.20
2022-11-08T12:03:09.557Z,21.20
2022-11-08T12:06:13.876Z,20.90
2022-11-08T12:09:24.352Z,21.00
2022-11-08T12:12:29.392Z,20.50
2022-11-08T12:15:12.374Z,21.00
2022-11-08T12:18:41.075Z,21.10
2022-11-08T12:21:15.295Z,21.10
2022-11-08T12:24:00.883Z,21.00
2022-11-08T12:26:39.103Z,21.00
2022-11-08T12:29:36.919Z,21.40
2022-11-08T12:32:27.534Z,21.60
2022-11-08T12:35:44.576Z,21.70
2022-11-08T12:38:58.050Z,22.10
2022-11-08T12:42:05.114Z,22.10
2022-11-08T12:44:48.681Z,22.20
2022-11-08T12:47:33.141Z,22.00
2022-11-08T12:50:49.346Z,21.60
2022-11-08T12:53:31.940Z,21.20
2022-11-08T12:56:21.242Z,21.20
2022-11-08T12:58:55.442Z,21.30
2022-11-08T13:01:30.561Z,21.30
2022-11-08T13:04:23.911Z,21.70
2022-11-08T13:07:20.365Z,21.60
2022-11-08T13:10:22.993Z,21.50
2022-11-08T13:13:35.678Z,21.50
2022-11-08T13:16:15.278Z,21.50
2022-11-08T13:19:01.622Z,21.40
2022-11-08T13:21:38.339Z,21.30
2022-11-08T13:24:42.340Z,21.10
2022-11-08T13:27:42.776Z,21.00
2022-11-08T13:30:15.601Z,20.80
2022-11-08T13:33:13.646Z,20.60
2022-11-08T13:36:16.070Z,20.50
2022-11-08T13:39:28.479Z,20.50
2022-11-08T13:42:15.428Z,20.40
2022-11-08T13:44:56.779Z,20.40
2022-11-08T13:47:34.843Z,20.30
2022-11-08T13:50:33.650Z,20.20
2022-11-08T13:53:25.202Z,20.10
2022-11-08T13:56:23.723Z,19.90
2022-11-08T13:58:56.030Z,19.80
2022-11-08T14:04:01.357Z,19.50
2022-11-08T14:07:25.393Z,19.40
2022-11-08T14:10:12.105Z,19.30
2022-11-08T14:13:06.399Z,19.30
2022-11-08T14:15:57.218Z,19.30
2022-11-08T14:18:36.130Z,19.20
2022-11-08T14:21:08.337Z,19.10
2022-11-08T14:23:42.700Z,19.10
2022-11-08T14:26:22.515Z,19.10
2022-11-08T14:28:54.441Z,19.00
2022-11-08T14:31:33.419Z,18.90
2022-11-08T14:39:18.092Z,18.80
2022-11-08T14:41:56.786Z,18.80
2022-11-08T14:44:30.635Z,18.70
2022-11-08T14:47:04.598Z,18.60
2022-11-08T14:49:38.418Z,18.40
2022-11-08T14:52:19.031Z,18.30
2022-11-08T14:55:03.656Z,18.30
2022-11-08T14:57:45.071Z,18.30
2022-11-08T15:00:29.429Z,18.20
2022-11-08T15:03:05.514Z,18.20
2022-11-08T15:06:13.564Z,18.30
2022-11-08T15:08:51.817Z,18.20
2022-11-08T15:11:29.185Z,18.10
2022-11-08T15:14:06.724Z,18.10
2022-11-08T15:17:02.828Z,18.00
2022-11-08T15:19:46.083Z,17.90
2022-11-08T15:22:33.384Z,17.80
2022-11-08T15:25:15.170Z,17.70
2022-11-08T15:27:58.369Z,17.60
2022-11-08T15:30:30.125Z,17.50
2022-11-08T15:33:03.355Z,17.40
2022-11-08T15:35:38.389Z,17.40
2022-11-08T15:38:32.452Z,17.20
2022-11-08T15:41:25.473Z,17.00
2022-11-08T15:44:20.411Z,17.00
2022-11-08T15:46:54.219Z,16.90
2022-11-08T15:49:29.900Z,16.80
2022-11-08T15:54:36.292Z,16.60
2022-11-08T15:59:43.309Z,16.50
2022-11-08T16:02:16.262Z,16.40
2022-11-08T16:04:48.163Z,16.40
2022-11-08T16:10:12.604Z,16.10
2022-11-08T16:12:47.162Z,16.10
2022-11-08T16:15:25.425Z,16.00
2022-11-08T16:17:57.420Z,15.90
2022-11-08T16:20:38.599Z,15.80
2022-11-08T16:23:12.426Z,15.70
2022-11-08T16:28:49.149Z,15.30
2022-11-08T16:33:56.374Z,15.20
2022-11-08T16:36:28.695Z,15.10
2022-11-08T16:39:02.660Z,15.10
2022-11-08T16:44:14.991Z,15.10
2022-11-08T16:49:22.456Z,15.00
2022-11-08T16:57:28.314Z,15.00
2022-11-08T16:59:53.362Z,14.90
2022-11-08T17:02:31.776Z,14.80
2022-11-08T17:05:05.365Z,14.80
2022-11-08T17:07:38.126Z,14.70
2022-11-08T17:10:15.671Z,14.60
2022-11-08T17:12:49.142Z,14.60
2022-11-08T17:15:24.788Z,14.50
2022-11-08T17:17:59.214Z,14.40
2022-11-08T17:20:31.944Z,14.40
2022-11-08T17:25:40.624Z,14.30
2022-11-08T17:28:13.473Z,14.30
2022-11-08T17:33:18.807Z,14.30
2022-11-08T17:38:24.294Z,14.30
2022-11-08T17:41:04.400Z,14.10
2022-11-08T17:43:36.702Z,14.20
2022-11-08T17:46:10.721Z,14.30
2022-11-08T17:51:16.079Z,14.30
2022-11-08T17:53:47.974Z,14.30
2022-11-08T17:58:53.619Z,14.20
2022-11-08T18:01:26.455Z,14.20
2022-11-08T18:03:58.488Z,14.20
2022-11-08T18:06:31.221Z,14.20
2022-11-08T18:09:03.142Z,14.20
2022-11-08T18:11:36.701Z,14.20
2022-11-08T18:16:41.887Z,14.10
2022-11-08T18:19:14.443Z,14.00
2022-11-08T18:21:47.136Z,13.80
2022-11-08T18:24:19.611Z,13.80
2022-11-08T18:26:51.499Z,13.70
2022-11-08T18:29:24.229Z,13.70
2022-11-08T18:37:04.316Z,13.80
2022-11-08T18:39:37.041Z,13.70
2022-11-08T18:42:08.967Z,13.70
2022-11-08T18:44:41.706Z,13.60
2022-11-08T18:47:13.897Z,13.60
2022-11-08T19:02:33.500Z,13.50
2022-11-08T19:05:07.022Z,13.50
2022-11-08T19:07:38.931Z,13.50
2022-11-08T19:15:16.740Z,13.60
2022-11-08T19:17:54.172Z,13.60
2022-11-08T19:30:39.568Z,13.80
2022-11-08T19:33:11.421Z,13.70
2022-11-08T19:35:44.837Z,13.80
2022-11-08T19:40:50.836Z,14.10
2022-11-08T19:43:25.218Z,14.00
2022-11-08T19:46:04.611Z,13.80
2022-11-08T19:48:40.232Z,13.70
2022-11-08T19:51:16.103Z,13.50
2022-11-08T19:53:49.068Z,13.50
2022-11-08T19:59:10.676Z,13.40
2022-11-08T20:04:16.104Z,13.40
2022-11-08T20:06:48.578Z,13.40
2022-11-08T20:09:21.298Z,13.40
2022-11-08T20:11:55.793Z,13.40
2022-11-08T20:14:27.673Z,13.40
2022-11-08T20:17:00.374Z,13.30
2022-11-08T20:19:32.281Z,13.30
2022-11-08T20:22:05.271Z,13.30
2022-11-08T20:34:51.173Z,13.50
2022-11-08T20:42:28.899Z,13.60
2022-11-08T20:45:00.761Z,13.60
2022-11-08T20:47:35.911Z,13.70
2022-11-08T20:50:10.654Z,13.60
2022-11-08T20:52:43.337Z,13.70
2022-11-08T20:55:15.468Z,13.80
2022-11-08T20:57:48.166Z,13.80
2022-11-08T21:03:17.819Z,13.80
2022-11-08T21:05:58.092Z,13.90
2022-11-08T21:11:24.857Z,13.70
2022-11-08T21:16:35.158Z,13.80
2022-11-08T21:21:46.605Z,13.90
2022-11-08T21:24:18.949Z,13.80
2022-11-08T21:26:51.070Z,13.70
2022-11-08T21:31:56.845Z,13.60
2022-11-08T21:37:04.949Z,13.50
2022-11-08T21:44:43.518Z,13.70
2022-11-08T21:47:15.347Z,13.80
2022-11-08T21:49:48.715Z,13.90
2022-11-08T21:52:20.725Z,13.90
2022-11-08T21:54:53.393Z,13.90
2022-11-08T21:57:25.658Z,13.80
2022-11-08T21:59:57.544Z,13.80
2022-11-08T22:02:30.199Z,13.70
2022-11-08T22:05:02.254Z,13.70
2022-11-08T22:07:35.887Z,13.60
2022-11-08T22:10:11.559Z,13.70
2022-11-08T22:12:44.249Z,13.70
2022-11-08T22:18:14.473Z,13.70
2022-11-08T22:21:06.250Z,13.80
2022-11-08T22:23:38.128Z,13.90
2022-11-08T22:28:43.516Z,13.80
2022-11-08T22:31:15.775Z,13.80
2022-11-08T22:33:48.073Z,13.90
2022-11-08T22:36:20.855Z,13.90
2022-11-08T22:41:25.845Z,13.90
2022-11-08T22:43:58.941Z,13.90
2022-11-08T22:46:30.768Z,13.80
2022-11-08T22:49:03.701Z,13.80
2022-11-08T22:54:08.622Z,13.70
2022-11-08T22:56:44.169Z,13.80
2022-11-08T22:59:16.119Z,13.80
2022-11-08T23:01:48.912Z,13.80
2022-11-08T23:04:20.753Z,13.80
2022-11-08T23:09:25.564Z,13.90
2022-11-08T23:12:16.687Z,13.90
2022-11-08T23:15:06.960Z,14.00
2022-11-08T23:20:36.628Z,14.20
2022-11-08T23:23:30.854Z,14.00
2022-11-08T23:26:02.790Z,14.00
2022-11-08T23:28:53.621Z,14.00
2022-11-08T23:31:37.706Z,13.90
2022-11-08T23:34:10.365Z,14.00
2022-11-08T23:36:42.204Z,14.00
2022-11-08T23:49:43.803Z,14.30
2022-11-08T23:54:50.983Z,14.40
2022-11-08T23:57:22.836Z,14.30
